Time;durP1;ratioP1;P1;durP2;ratioP2;P2;SDS_P1;SDS_P2;PMS_P1;PMS_P2;Temp;Humidity;BMP_temperature;BMP_pressure;BME280_temperature;BME280_humidity;BME280_pressure;Samples;Min_cycle;Max_cycle;Signal;HPM_P1;HPM_P2
2022/01/19 00:01:20;;;;;;;14.07;6.13;;;5.50;99.90;;;;;;6214318;23;20000;-86
2022/01/19 00:03:46;;;;;;;17.17;6.13;;;5.50;99.90;;;;;;6189422;23;20001;-86
2022/01/19 00:06:12;;;;;;;12.77;5.37;;;5.50;99.90;;;;;;6189505;23;20547;-85
2022/01/19 00:08:38;;;;;;;16.47;5.77;;;5.50;99.90;;;;;;6216040;23;20008;-86
2022/01/19 00:11:04;;;;;;;12.23;5.27;;;5.50;99.90;;;;;;6189277;23;20083;-85
2022/01/19 00:13:30;;;;;;;13.00;5.87;;;5.60;99.90;;;;;;6214543;23;20035;-86
2022/01/19 00:15:56;;;;;;;12.80;6.37;;;5.70;99.90;;;;;;6189369;23;20020;-85
2022/01/19 00:18:24;;;;;;;10.80;5.60;;;5.70;99.90;;;;;;6216951;23;20087;-86
2022/01/19 00:20:52;;;;;;;13.43;5.70;;;5.80;99.90;;;;;;6189184;23;20004;-85
2022/01/19 00:23:19;;;;;;;12.23;5.37;;;5.80;99.90;;;;;;6214156;23;20009;-86
2022/01/19 00:25:46;;;;;;;12.50;5.30;;;5.80;99.90;;;;;;6239133;23;20007;-85
2022/01/19 00:28:12;;;;;;;13.17;5.03;;;5.90;99.90;;;;;;6213920;23;20036;-86
2022/01/19 00:30:39;;;;;;;10.87;5.67;;;5.90;99.90;;;;;;6188962;23;20012;-86
2022/01/19 00:33:05;;;;;;;10.30;5.33;;;5.90;99.90;;;;;;6189021;23;20018;-86
2022/01/19 00:35:31;;;;;;;11.13;5.60;;;5.90;99.90;;;;;;6213832;23;20354;-85
2022/01/19 00:37:57;;;;;;;11.50;5.70;;;5.90;99.90;;;;;;6213676;23;20012;-86
2022/01/19 00:40:23;;;;;;;9.27;5.37;;;5.90;99.90;;;;;;6188869;23;20008;-86
2022/01/19 00:42:49;;;;;;;12.10;5.60;;;6.00;99.90;;;;;;6189129;23;20032;-85
2022/01/19 00:45:15;;;;;;;10.93;5.40;;;5.90;99.90;;;;;;6188952;23;20055;-86
2022/01/19 00:47:42;;;;;;;12.17;5.57;;;5.90;99.90;;;;;;6188711;23;20004;-86
2022/01/19 00:50:11;;;;;;;13.63;6.60;;;5.90;99.90;;;;;;6189027;23;20334;-86
2022/01/19 00:52:37;;;;;;;13.10;6.10;;;5.90;99.90;;;;;;6214672;23;20009;-86
2022/01/19 00:55:09;;;;;;;10.93;5.90;;;5.90;99.90;;;;;;6194130;23;20016;-86
2022/01/19 00:57:35;;;;;;;12.87;5.57;;;6.00;99.90;;;;;;6194231;23;20429;-86
2022/01/19 01:00:07;;;;;;;10.97;5.30;;;6.00;99.90;;;;;;6194351;23;20036;-87
2022/01/19 01:02:33;;;;;;;11.93;5.23;;;6.00;99.90;;;;;;6193949;23;20016;-85
2022/01/19 01:04:59;;;;;;;12.30;5.23;;;5.90;99.90;;;;;;6194030;23;20426;-85
2022/01/19 01:07:25;;;;;;;9.23;5.03;;;6.00;99.90;;;;;;6246294;23;20004;-86
2022/01/19 01:09:51;;;;;;;9.83;4.97;;;6.00;99.90;;;;;;6194068;23;20004;-86
2022/01/19 01:12:30;;;;;;;12.17;5.40;;;6.00;99.90;;;;;;6219204;23;20089;-86
2022/01/19 01:20:25;;;;;;;11.00;5.90;;;5.90;99.90;;;;;;6218897;23;20450;-86
2022/01/19 01:22:51;;;;;;;11.17;6.07;;;5.80;99.90;;;;;;6194073;23;20004;-86
2022/01/19 01:25:17;;;;;;;11.23;5.63;;;5.70;99.90;;;;;;6244532;23;20031;-86
2022/01/19 01:27:42;;;;;;;10.77;6.10;;;5.70;99.90;;;;;;6193525;23;20386;-85
2022/01/19 01:30:09;;;;;;;11.03;5.47;;;5.70;99.90;;;;;;6194166;23;20389;-86
2022/01/19 01:32:35;;;;;;;10.63;5.43;;;5.60;99.90;;;;;;6194552;23;20138;-86
2022/01/19 01:35:01;;;;;;;11.37;5.57;;;5.50;99.90;;;;;;6219284;23;20005;-85
2022/01/19 01:37:27;;;;;;;12.40;5.80;;;5.40;99.90;;;;;;6219419;23;20529;-86
2022/01/19 01:39:52;;;;;;;9.00;5.10;;;5.40;99.90;;;;;;6194202;23;20012;-86
2022/01/19 01:42:21;;;;;;;11.30;5.20;;;5.30;99.90;;;;;;6194591;23;20083;-86
2022/01/19 01:44:51;;;;;;;11.07;5.30;;;5.30;99.90;;;;;;6194579;23;20004;-85
2022/01/19 01:47:19;;;;;;;13.40;6.10;;;5.40;99.90;;;;;;6194422;23;20004;-84
2022/01/19 01:55:10;;;;;;;14.65;6.00;;;5.20;99.90;;;;;;6221067;23;20012;-84
2022/01/19 01:57:37;;;;;;;11.75;5.38;;;5.10;99.90;;;;;;6221067;23;20008;-84
2022/01/19 02:00:06;;;;;;;12.73;5.67;;;5.10;99.90;;;;;;6195658;23;20084;-83
2022/01/19 02:02:47;;;;;;;10.73;5.67;;;5.00;99.90;;;;;;6224224;23;20012;-84
2022/01/19 02:05:16;;;;;;;13.50;6.07;;;5.00;99.90;;;;;;6220373;23;20007;-86
2022/01/19 02:11:06;;;;;;;10.70;5.43;;;4.90;99.90;;;;;;6221170;23;20008;-84
2022/01/19 02:16:16;;;;;;;11.77;5.93;;;4.80;99.90;;;;;;6220672;23;20434;-84
2022/01/19 02:21:58;;;;;;;9.00;5.03;;;4.60;99.90;;;;;;6220178;23;20430;-84
2022/01/19 02:24:29;;;;;;;10.93;5.23;;;4.60;99.90;;;;;;6196070;23;20586;-84
2022/01/19 02:40:26;;;;;;;8.63;4.87;;;4.60;99.90;;;;;;6220890;23;20019;-86
2022/01/19 02:50:36;;;;;;;7.97;4.37;;;4.90;99.90;;;;;;6222907;23;19907;-84
2022/01/19 02:53:03;;;;;;;8.43;5.23;;;5.10;99.90;;;;;;6247880;23;20027;-84
2022/01/19 02:55:34;;;;;;;9.87;5.53;;;5.10;99.90;;;;;;6222755;23;20043;-84
2022/01/19 02:58:00;;;;;;;8.43;4.97;;;5.20;99.90;;;;;;6197924;23;20008;-84
2022/01/19 03:08:43;;;;;;;7.77;4.90;;;5.50;99.90;;;;;;6222568;23;20471;-86
2022/01/19 03:11:09;;;;;;;8.00;4.77;;;5.50;99.90;;;;;;6197482;23;20004;-84
2022/01/19 03:13:35;;;;;;;6.70;4.60;;;5.60;99.90;;;;;;6197348;23;20008;-84
2022/01/19 03:16:01;;;;;;;7.60;4.60;;;5.60;99.90;;;;;;6196881;23;20018;-84
2022/01/19 03:18:27;;;;;;;7.47;4.60;;;5.60;99.90;;;;;;6222163;23;20038;-84
2022/01/19 03:20:53;;;;;;;8.03;5.43;;;5.60;99.90;;;;;;6197305;23;20004;-84
2022/01/19 03:23:20;;;;;;;7.33;5.10;;;5.60;99.90;;;;;;6197039;23;20008;-84
2022/01/19 03:25:51;;;;;;;6.77;5.40;;;5.60;99.90;;;;;;6246882;23;20040;-84
2022/01/19 03:28:18;;;;;;;10.63;5.70;;;5.70;99.90;;;;;;6196631;23;20066;-85
2022/01/19 03:30:45;;;;;;;7.73;5.13;;;5.60;99.90;;;;;;6197279;23;20014;-84
2022/01/19 03:33:12;;;;;;;8.10;5.67;;;5.70;99.90;;;;;;6197279;23;20019;-84
2022/01/19 03:35:39;;;;;;;8.03;5.77;;;5.70;99.90;;;;;;6246581;23;20034;-84
2022/01/19 03:38:09;;;;;;;7.73;5.83;;;5.70;99.90;;;;;;6220192;23;20343;-84
2022/01/19 03:40:35;;;;;;;;;;;5.70;99.90;;;;;;6195363;23;20004;-84
2022/01/19 03:43:03;;;;;;;8.97;5.73;;;5.70;99.90;;;;;;6246615;23;19965;-84
2022/01/19 03:45:56;;;;;;;8.07;5.83;;;5.70;99.90;;;;;;6199880;23;19996;-84
2022/01/19 03:50:48;;;;;;;9.30;6.30;;;5.80;99.90;;;;;;6224167;23;20000;-84
2022/01/19 03:53:14;;;;;;;7.97;6.03;;;5.70;99.90;;;;;;6202263;23;20008;-84
2022/01/19 03:55:40;;;;;;;8.40;6.30;;;5.70;99.90;;;;;;6199247;23;20023;-84
2022/01/19 03:58:06;;;;;;;7.80;5.80;;;5.70;99.90;;;;;;6197060;23;20008;-84
2022/01/19 04:00:35;;;;;;;8.57;6.23;;;5.70;99.90;;;;;;6197367;23;20000;-84
2022/01/19 04:03:04;;;;;;;8.38;6.63;;;5.70;99.90;;;;;;6224316;23;20086;-87
2022/01/19 04:08:14;;;;;;;8.40;6.43;;;5.80;99.90;;;;;;6227989;23;20008;-86
2022/01/19 04:10:40;;;;;;;10.67;6.60;;;5.80;99.90;;;;;;6194797;23;20087;-87
2022/01/19 04:13:21;;;;;;;8.00;6.37;;;5.80;99.90;;;;;;6246375;23;20368;-84
2022/01/19 04:15:48;;;;;;;9.67;6.80;;;5.80;99.90;;;;;;6195538;23;20501;-87
2022/01/19 04:18:14;;;;;;;9.37;7.30;;;5.90;99.90;;;;;;6218618;23;20019;-86
2022/01/19 04:20:42;;;;;;;10.70;7.17;;;5.90;99.90;;;;;;6194987;23;20328;-88
2022/01/19 04:23:08;;;;;;;9.67;7.03;;;6.00;99.90;;;;;;6193693;23;20008;-86
2022/01/19 04:25:34;;;;;;;13.10;7.67;;;5.90;99.90;;;;;;6194564;23;20109;-85
2022/01/19 04:28:07;;;;;;;10.57;7.60;;;5.90;99.90;;;;;;6194183;23;20008;-84
2022/01/19 04:30:37;;;;;;;11.30;7.93;;;5.90;99.90;;;;;;6191443;23;20024;-83
2022/01/19 04:35:46;;;;;;;17.80;10.33;;;6.00;99.90;;;;;;6218566;23;20012;-85
2022/01/19 04:47:01;;;;;;;28.67;14.13;;;6.00;99.90;;;;;;6216955;23;20090;-85
2022/01/19 04:54:47;;;;;;;29.73;14.07;;;5.80;99.90;;;;;;6216288;23;20435;-86
2022/01/19 05:03:37;;;;;;;26.00;12.83;;;5.80;99.90;;;;;;6200811;23;20367;-85
2022/01/19 05:06:09;;;;;;;26.47;13.30;;;5.80;99.90;;;;;;6241321;23;20004;-85
2022/01/19 05:14:15;;;;;;;26.67;13.63;;;5.80;99.90;;;;;;6215955;23;20046;-85
2022/01/19 05:16:41;;;;;;;27.40;13.70;;;5.90;99.90;;;;;;6216375;23;20002;-85
2022/01/19 05:19:07;;;;;;;28.37;14.10;;;5.80;99.90;;;;;;6215571;23;20035;-85
2022/01/19 05:21:35;;;;;;;24.37;12.93;;;5.80;99.90;;;;;;6191032;23;20091;-87
2022/01/19 05:24:07;;;;;;;24.53;12.80;;;5.90;99.90;;;;;;6218058;23;20012;-87
2022/01/19 05:26:36;;;;;;;21.97;11.00;;;5.90;99.90;;;;;;6111604;23;20040;-84
2022/01/19 05:29:05;;;;;;;23.20;11.13;;;5.80;99.90;;;;;;6150279;23;20023;-84
2022/01/19 05:31:31;;;;;;;21.83;11.53;;;5.90;99.90;;;;;;6150980;23;20100;-85
2022/01/19 05:33:57;;;;;;;19.13;11.23;;;5.80;99.90;;;;;;6151110;23;20052;-86
2022/01/19 05:36:26;;;;;;;21.08;10.88;;;5.90;99.90;;;;;;6151352;23;20017;-87
2022/01/19 05:39:17;;;;;;;21.37;11.10;;;5.90;99.90;;;;;;6150089;23;20017;-85
2022/01/19 05:42:03;;;;;;;17.83;10.30;;;5.90;99.90;;;;;;6151183;23;20016;-85
2022/01/19 05:44:30;;;;;;;18.83;10.43;;;5.90;99.90;;;;;;6150865;23;20060;-85
2022/01/19 05:46:56;;;;;;;17.63;10.90;;;5.90;99.90;;;;;;6147606;23;20009;-85
2022/01/19 05:49:22;;;;;;;17.70;10.10;;;5.90;99.90;;;;;;6150686;23;20021;-85
2022/01/19 05:51:48;;;;;;;18.37;9.80;;;5.90;99.90;;;;;;6151212;23;20515;-85
2022/01/19 05:54:14;;;;;;;17.30;9.90;;;5.90;99.90;;;;;;6126750;23;20041;-85
2022/01/19 05:56:40;;;;;;;15.83;9.87;;;6.00;99.90;;;;;;6152731;23;20020;-83
2022/01/19 05:59:31;;;;;;;16.60;9.67;;;6.00;99.90;;;;;;6151855;23;20056;-83
2022/01/19 06:01:58;;;;;;;14.80;9.80;;;6.00;99.90;;;;;;6153329;23;20313;-83
2022/01/19 06:04:24;;;;;;;16.90;9.70;;;5.90;99.90;;;;;;6129033;23;20013;-83
2022/01/19 06:07:03;;;;;;;14.77;9.33;;;5.90;99.90;;;;;;6154110;23;20005;-84
2022/01/19 06:10:05;;;;;;;17.85;10.15;;;5.90;99.90;;;;;;6074069;23;20010;-84
2022/01/19 06:12:36;;;;;;;16.60;9.60;;;6.00;99.90;;;;;;6128708;23;20363;-83
2022/01/19 06:15:03;;;;;;;17.20;9.93;;;5.90;99.90;;;;;;6152551;23;20006;-85
2022/01/19 06:17:29;;;;;;;16.57;10.57;;;6.00;99.90;;;;;;6127932;23;20017;-86
2022/01/19 06:19:56;;;;;;;17.47;10.43;;;5.90;99.90;;;;;;6151600;23;20439;-85
2022/01/19 06:22:22;;;;;;;20.43;10.47;;;5.90;99.90;;;;;;6153368;23;20040;-87
2022/01/19 06:24:48;;;;;;;16.63;9.53;;;5.90;99.90;;;;;;6154451;23;20012;-84
2022/01/19 06:27:16;;;;;;;19.37;9.80;;;6.00;99.90;;;;;;6131440;23;20077;-84
2022/01/19 06:29:41;;;;;;;17.47;9.47;;;6.00;99.90;;;;;;6131213;23;20100;-85
2022/01/19 06:32:07;;;;;;;15.90;10.13;;;5.90;99.90;;;;;;6131860;23;20448;-84
2022/01/19 06:34:33;;;;;;;14.67;8.87;;;5.80;99.90;;;;;;6154948;23;20062;-84
2022/01/19 06:37:22;;;;;;;17.38;10.43;;;5.80;99.90;;;;;;6141900;23;20013;-83
2022/01/19 06:39:56;;;;;;;18.23;9.67;;;5.80;99.90;;;;;;6154005;23;20036;-86
2022/01/19 06:42:22;;;;;;;20.20;10.37;;;5.80;99.90;;;;;;6128909;23;20001;-84
2022/01/19 06:44:48;;;;;;;16.83;9.80;;;5.90;99.90;;;;;;6154058;23;20017;-83
2022/01/19 06:47:14;;;;;;;17.63;10.07;;;5.80;99.90;;;;;;6130020;23;20084;-84
2022/01/19 06:49:39;;;;;;;17.20;10.10;;;5.80;99.90;;;;;;6153746;23;20322;-89
2022/01/19 06:52:08;;;;;;;20.03;11.03;;;5.80;99.90;;;;;;6153932;23;20338;-82
2022/01/19 06:54:34;;;;;;;19.43;11.47;;;5.90;99.90;;;;;;6153391;23;20032;-84
2022/01/19 06:57:00;;;;;;;17.53;10.87;;;5.80;99.90;;;;;;6153148;23;20444;-88
2022/01/19 06:59:35;;;;;;;17.40;11.13;;;5.80;99.90;;;;;;6129217;23;20013;-84
2022/01/19 07:02:12;;;;;;;19.03;11.37;;;5.80;99.90;;;;;;6154041;23;20037;-85
2022/01/19 07:05:00;;;;;;;17.77;11.07;;;5.80;99.90;;;;;;6153811;23;20021;-90
2022/01/19 07:07:42;;;;;;;19.97;11.57;;;5.80;99.90;;;;;;6150670;23;20009;-84
2022/01/19 07:10:09;;;;;;;19.27;11.80;;;5.80;99.90;;;;;;6153952;23;20124;-83
2022/01/19 07:12:36;;;;;;;17.90;10.80;;;5.80;99.90;;;;;;6154211;23;20018;-85
2022/01/19 07:15:05;;;;;;;18.43;11.50;;;5.90;99.90;;;;;;6154251;23;20449;-86
2022/01/19 07:17:31;;;;;;;22.27;11.73;;;5.80;99.90;;;;;;6155547;23;20012;-86
2022/01/19 07:19:58;;;;;;;20.40;11.10;;;5.90;99.90;;;;;;6156275;23;20009;-83
2022/01/19 07:22:24;;;;;;;19.13;11.87;;;5.90;99.90;;;;;;6129842;23;20012;-83
2022/01/19 07:24:58;;;;;;;23.30;13.87;;;5.90;99.90;;;;;;6154201;23;20001;-83
2022/01/19 07:27:24;;;;;;;21.20;12.67;;;6.10;99.90;;;;;;6154021;23;20009;-83
2022/01/19 07:29:50;;;;;;;19.23;11.83;;;6.30;99.90;;;;;;6153214;23;20044;-84
2022/01/19 07:32:16;;;;;;;17.70;11.37;;;6.40;99.90;;;;;;6128321;23;20017;-89
2022/01/19 07:34:42;;;;;;;18.33;11.07;;;6.40;99.90;;;;;;6153510;23;20360;-85
2022/01/19 07:37:11;;;;;;;16.25;11.07;;;6.50;99.90;;;;;;6153185;23;20029;-85
2022/01/19 07:39:38;;;;;;;17.07;10.97;;;6.40;99.90;;;;;;6152320;23;20490;-86
2022/01/19 07:42:04;;;;;;;17.23;10.70;;;6.30;99.90;;;;;;6153503;23;20378;-86
2022/01/19 07:44:55;;;;;;;17.00;11.23;;;6.30;99.90;;;;;;6143357;23;20010;-83
2022/01/19 07:47:42;;;;;;;17.40;10.50;;;6.20;99.90;;;;;;6134549;23;20012;-84
2022/01/19 07:50:09;;;;;;;16.80;11.30;;;6.20;99.90;;;;;;6160288;23;20069;-85
2022/01/19 07:52:52;;;;;;;18.83;11.17;;;6.10;99.90;;;;;;6129837;23;20010;-85
2022/01/19 07:55:25;;;;;;;17.73;12.17;;;6.10;99.90;;;;;;6152795;23;20495;-84
2022/01/19 07:58:01;;;;;;;18.67;12.03;;;6.00;99.90;;;;;;6152287;23;20416;-84
2022/01/19 08:00:43;;;;;;;18.10;11.57;;;6.00;99.90;;;;;;6149425;23;20373;-84
2022/01/19 08:03:46;;;;;;;18.23;12.03;;;6.00;99.90;;;;;;6131367;23;20005;-92
2022/01/19 08:06:19;;;;;;;18.00;11.40;;;6.00;99.90;;;;;;6153491;23;20010;-86
2022/01/19 08:08:47;;;;;;;20.57;12.97;;;6.00;99.90;;;;;;6152399;23;20088;-86
2022/01/19 08:11:12;;;;;;;17.97;12.33;;;5.90;99.90;;;;;;6152519;23;20427;-86
2022/01/19 08:13:42;;;;;;;19.47;12.37;;;5.90;99.90;;;;;;6152486;23;20425;-85
2022/01/19 08:16:34;;;;;;;19.60;12.40;;;6.00;99.90;;;;;;6153163;23;20040;-92
2022/01/19 08:19:00;;;;;;;18.97;12.37;;;6.00;99.90;;;;;;6127288;23;20017;-86
2022/01/19 08:21:26;;;;;;;20.33;12.80;;;6.00;99.90;;;;;;6152399;23;20013;-87
2022/01/19 08:23:58;;;;;;;20.50;12.87;;;5.90;99.90;;;;;;6153882;23;20008;-87
2022/01/19 08:26:24;;;;;;;18.77;12.50;;;6.00;99.90;;;;;;6152224;23;20089;-87
2022/01/19 08:28:54;;;;;;;20.33;12.40;;;6.00;99.90;;;;;;6151660;23;20009;-85
2022/01/19 08:31:20;;;;;;;18.90;12.23;;;6.00;99.90;;;;;;6151876;23;20021;-86
2022/01/19 08:34:04;;;;;;;20.50;12.07;;;6.00;99.90;;;;;;6153179;23;20009;-86
2022/01/19 08:36:50;;;;;;;18.03;12.27;;;6.00;99.90;;;;;;6155000;23;20444;-87
2022/01/19 08:39:22;;;;;;;22.37;12.80;;;6.00;99.90;;;;;;6130315;23;20167;-90
2022/01/19 08:42:02;;;;;;;19.07;12.53;;;5.90;99.90;;;;;;6155400;23;20017;-92
2022/01/19 08:44:28;;;;;;;19.08;12.48;;;5.90;99.90;;;;;;6159927;23;20005;-89
2022/01/19 08:47:10;;;;;;;18.67;12.53;;;5.90;99.90;;;;;;6154886;23;20440;-86
2022/01/19 08:49:37;;;;;;;18.63;12.57;;;6.00;99.90;;;;;;6129754;23;20076;-87
2022/01/19 08:52:38;;;;;;;20.73;12.67;;;6.00;99.90;;;;;;6154668;23;20093;-88
2022/01/19 08:55:14;;;;;;;18.03;11.87;;;6.00;99.90;;;;;;6154668;23;20465;-90
2022/01/19 08:57:40;;;;;;;20.80;13.27;;;6.00;99.90;;;;;;6155023;23;20085;-89
2022/01/19 09:00:11;;;;;;;20.33;13.23;;;5.90;99.90;;;;;;6154279;23;20048;-88
2022/01/19 09:02:37;;;;;;;20.83;12.93;;;5.90;99.90;;;;;;6156639;23;20005;-89
2022/01/19 09:05:04;;;;;;;21.70;12.80;;;6.00;99.90;;;;;;6157557;23;20008;-89
2022/01/19 09:07:33;;;;;;;21.17;13.47;;;6.00;99.90;;;;;;6156628;23;20006;-88
2022/01/19 09:09:59;;;;;;;22.23;14.30;;;5.90;99.90;;;;;;6154074;23;20013;-89
2022/01/19 09:12:25;;;;;;;24.57;13.73;;;6.00;99.90;;;;;;6154077;23;20060;-90
2022/01/19 09:14:51;;;;;;;25.50;13.27;;;6.00;99.90;;;;;;6131144;23;20444;-91
2022/01/19 09:17:21;;;;;;;19.60;12.60;;;6.00;99.90;;;;;;6155904;23;20016;-90
2022/01/19 09:19:51;;;;;;;84.60;39.53;;;5.90;99.90;;;;;;6154423;23;20062;-93
2022/01/19 09:22:18;;;;;;;21.63;13.20;;;5.90;99.90;;;;;;6129966;23;20010;-88
2022/01/19 09:24:44;;;;;;;22.73;14.20;;;5.90;99.90;;;;;;6129290;23;20305;-89
2022/01/19 09:27:10;;;;;;;22.80;13.13;;;6.00;99.90;;;;;;6130486;23;20024;-88
2022/01/19 09:29:42;;;;;;;25.70;14.30;;;6.00;99.90;;;;;;6154398;23;20503;-87
2022/01/19 09:32:10;;;;;;;24.67;14.37;;;6.10;99.90;;;;;;6129933;23;20064;-86
2022/01/19 09:34:39;;;;;;;21.55;13.93;;;6.10;99.90;;;;;;6153751;23;20400;-88
2022/01/19 09:37:08;;;;;;;31.10;13.77;;;6.10;99.90;;;;;;6155183;23;20016;-88
2022/01/19 09:39:34;;;;;;;24.77;14.80;;;6.00;99.90;;;;;;6153698;23;20013;-84
2022/01/19 09:42:00;;;;;;;19.80;13.10;;;6.10;99.90;;;;;;6153377;23;20005;-86
2022/01/19 09:44:28;;;;;;;22.07;13.07;;;6.00;99.90;;;;;;6154247;23;20010;-87
2022/01/19 09:46:54;;;;;;;19.97;13.67;;;6.10;99.90;;;;;;6129192;23;20037;-87
2022/01/19 09:49:21;;;;;;;21.03;12.80;;;6.10;99.90;;;;;;6154087;23;20009;-87
2022/01/19 09:51:49;;;;;;;18.87;12.57;;;6.00;99.90;;;;;;6153168;23;20459;-87
2022/01/19 09:54:20;;;;;;;18.90;12.60;;;6.10;99.90;;;;;;6153528;23;20436;-87
2022/01/19 09:56:46;;;;;;;18.43;12.77;;;6.10;99.90;;;;;;6153260;23;20089;-87
2022/01/19 09:59:14;;;;;;;21.40;13.27;;;6.00;99.90;;;;;;6155041;23;20010;-86
2022/01/19 10:01:51;;;;;;;20.00;13.60;;;6.10;99.90;;;;;;6155624;23;20006;-87
2022/01/19 10:04:27;;;;;;;25.70;15.43;;;6.10;99.90;;;;;;6155206;23;20060;-87
2022/01/19 10:07:12;;;;;;;27.67;15.73;;;6.10;99.90;;;;;;6155512;23;20005;-87
2022/01/19 10:10:05;;;;;;;23.03;14.57;;;6.10;99.90;;;;;;6155019;23;20092;-87
2022/01/19 10:18:21;;;;;;;24.03;14.90;;;6.10;99.90;;;;;;6155614;23;20009;-87
2022/01/19 10:21:12;;;;;;;26.87;15.17;;;6.10;99.90;;;;;;6154881;23;20009;-87
2022/01/19 10:23:41;;;;;;;22.90;15.00;;;6.10;99.90;;;;;;6154933;23;20001;-87
2022/01/19 10:26:10;;;;;;;26.10;16.00;;;6.10;99.90;;;;;;6154755;23;20345;-87
2022/01/19 10:29:03;;;;;;;20.63;13.77;;;6.10;99.90;;;;;;6155053;23;20016;-87
2022/01/19 10:31:30;;;;;;;22.10;13.13;;;6.10;99.90;;;;;;6154873;23;20021;-87
2022/01/19 10:34:16;;;;;;;22.27;13.40;;;6.10;99.90;;;;;;6154984;23;20014;-87
2022/01/19 10:36:55;;;;;;;20.43;13.10;;;6.10;99.90;;;;;;6154656;23;20021;-87
2022/01/19 10:39:24;;;;;;;21.37;12.53;;;6.10;99.90;;;;;;6130057;23;20367;-86
2022/01/19 10:42:04;;;;;;;21.83;13.43;;;6.10;99.90;;;;;;6155588;23;20082;-87
2022/01/19 10:44:37;;;;;;;20.17;13.53;;;6.10;99.90;;;;;;6158413;23;20049;-86
2022/01/19 10:47:04;;;;;;;22.47;13.53;;;6.10;99.90;;;;;;6158152;23;20012;-87
2022/01/19 10:49:56;;;;;;;20.60;13.50;;;6.10;99.90;;;;;;6157287;23;20009;-87
2022/01/19 10:52:43;;;;;;;23.90;14.97;;;6.20;99.90;;;;;;6158793;23;20013;-88
2022/01/19 10:55:23;;;;;;;25.37;14.50;;;6.20;99.90;;;;;;6154595;23;20093;-87
2022/01/19 10:57:50;;;;;;;23.20;13.70;;;6.10;99.90;;;;;;6154393;23;20330;-87
2022/01/19 11:00:24;;;;;;;24.47;14.50;;;6.10;99.90;;;;;;6129797;23;20101;-87
2022/01/19 11:02:52;;;;;;;23.13;14.27;;;6.10;99.90;;;;;;6154685;23;20005;-87
2022/01/19 11:05:43;;;;;;;24.90;13.90;;;6.10;99.90;;;;;;6154409;23;20013;-87
2022/01/19 11:08:09;;;;;;;23.90;14.43;;;6.10;99.90;;;;;;6154606;23;20483;-87
2022/01/19 11:10:36;;;;;;;22.00;13.83;;;6.10;99.90;;;;;;6156477;23;20028;-87
2022/01/19 11:13:02;;;;;;;22.93;13.77;;;6.10;99.90;;;;;;6157461;23;20013;-87
2022/01/19 11:15:28;;;;;;;21.97;13.80;;;6.20;99.90;;;;;;6157450;23;20012;-87
2022/01/19 11:17:53;;;;;;;21.50;14.77;;;6.10;99.90;;;;;;6157172;23;20005;-87
2022/01/19 11:20:23;;;;;;;23.40;14.47;;;6.20;99.90;;;;;;6131522;23;20021;-87
2022/01/19 11:23:13;;;;;;;24.67;14.20;;;6.20;99.90;;;;;;6154289;23;20009;-86
2022/01/19 11:25:54;;;;;;;21.30;13.85;;;6.20;99.90;;;;;;6165548;23;20028;-85
2022/01/19 11:28:35;;;;;;;21.93;13.53;;;6.20;99.90;;;;;;6159115;23;20005;-85
2022/01/19 11:31:08;;;;;;;21.90;14.33;;;6.20;99.90;;;;;;6184413;23;20005;-85
2022/01/19 11:33:42;;;;;;;23.47;14.30;;;6.20;99.90;;;;;;6159720;23;20566;-85
2022/01/19 11:36:29;;;;;;;23.97;14.67;;;6.20;99.90;;;;;;6159084;23;20005;-85
2022/01/19 11:39:21;;;;;;;23.70;13.73;;;6.30;99.90;;;;;;6134785;23;20017;-86
2022/01/19 11:41:54;;;;;;;23.50;14.43;;;6.30;99.90;;;;;;6184620;23;20009;-86
2022/01/19 11:44:41;;;;;;;21.57;13.37;;;6.30;99.90;;;;;;6135058;23;20009;-85
2022/01/19 11:47:09;;;;;;;22.23;13.17;;;6.30;99.90;;;;;;6159212;23;20009;-85
2022/01/19 11:49:52;;;;;;;20.77;14.00;;;6.30;99.90;;;;;;6134445;23;20462;-86
2022/01/19 11:52:24;;;;;;;25.30;14.63;;;6.30;99.90;;;;;;6184261;23;20013;-85
2022/01/19 11:55:08;;;;;;;24.37;14.50;;;6.30;99.90;;;;;;6159497;23;20020;-86
2022/01/19 11:57:33;;;;;;;21.27;14.20;;;6.30;99.90;;;;;;6183749;23;20052;-85
2022/01/19 12:00:15;;;;;;;24.63;14.90;;;6.30;99.90;;;;;;6184167;23;20001;-86
2022/01/19 12:02:56;;;;;;;23.43;14.13;;;6.40;99.90;;;;;;6159226;23;20359;-86
2022/01/19 12:05:24;;;;;;;25.53;14.53;;;6.30;99.90;;;;;;6184044;23;20120;-86
2022/01/19 12:08:01;;;;;;;27.60;14.90;;;6.20;99.90;;;;;;6183217;23;20005;-86
2022/01/19 12:10:31;;;;;;;24.33;14.63;;;6.20;99.90;;;;;;6159100;23;20016;-84
2022/01/19 12:13:41;;;;;;;22.83;15.20;;;6.20;99.90;;;;;;6184319;23;20013;-86
2022/01/19 12:18:55;;;;;;;25.20;14.67;;;6.10;99.90;;;;;;6157906;23;20009;-85
2022/01/19 12:21:21;;;;;;;26.97;15.93;;;6.20;99.90;;;;;;6158777;23;20108;-86
2022/01/19 12:23:49;;;;;;;25.37;15.47;;;6.20;99.90;;;;;;6158957;23;20394;-85
2022/01/19 12:26:15;;;;;;;23.70;14.43;;;6.20;99.90;;;;;;6159169;23;20013;-85
2022/01/19 12:28:51;;;;;;;26.33;15.20;;;6.10;99.90;;;;;;6183056;23;20016;-85
2022/01/19 12:31:33;;;;;;;27.67;14.90;;;6.10;99.90;;;;;;6159264;23;20079;-85
2022/01/19 12:34:11;;;;;;;26.30;15.30;;;6.10;99.90;;;;;;6165288;23;20019;-85
2022/01/19 12:36:44;;;;;;;24.73;14.97;;;6.10;99.90;;;;;;6140583;23;20005;-85
2022/01/19 12:39:30;;;;;;;24.37;15.10;;;6.10;99.90;;;;;;6164932;23;20029;-85
2022/01/19 12:41:56;;;;;;;24.13;14.33;;;6.10;99.90;;;;;;6142555;23;20060;-84
2022/01/19 12:44:39;;;;;;;28.70;15.37;;;6.10;99.90;;;;;;6190436;23;20064;-85
2022/01/19 12:47:28;;;;;;;26.83;15.73;;;6.10;99.90;;;;;;6190460;23;20009;-86
2022/01/19 12:49:57;;;;;;;23.50;14.73;;;6.10;99.90;;;;;;6140379;23;20039;-86
2022/01/19 12:52:26;;;;;;;25.75;15.48;;;6.10;99.90;;;;;;6190743;23;20005;-85
2022/01/19 12:54:53;;;;;;;27.80;15.73;;;6.10;99.90;;;;;;6165158;23;20019;-85
2022/01/19 12:57:20;;;;;;;25.20;15.57;;;6.10;99.90;;;;;;6190873;23;20080;-83
2022/01/19 12:59:48;;;;;;;22.33;14.87;;;6.10;99.90;;;;;;6163153;23;20013;-85
2022/01/19 13:02:16;;;;;;;25.50;15.73;;;6.20;99.90;;;;;;6164702;23;20033;-85
2022/01/19 13:04:46;;;;;;;25.47;14.93;;;6.20;99.90;;;;;;6165899;23;20420;-85
2022/01/19 13:07:20;;;;;;;24.67;14.98;;;6.20;99.90;;;;;;6166619;23;20459;-86
2022/01/19 13:10:12;;;;;;;27.27;15.73;;;6.10;99.90;;;;;;6158806;23;20016;-85
2022/01/19 13:12:48;;;;;;;26.93;15.40;;;6.10;99.90;;;;;;6158694;23;20450;-84
2022/01/19 13:15:13;;;;;;;26.60;15.77;;;6.10;99.90;;;;;;6158419;23;20036;-84
2022/01/19 13:17:45;;;;;;;25.07;15.90;;;6.10;99.90;;;;;;6183078;23;20009;-84
2022/01/19 13:20:14;;;;;;;24.33;15.13;;;6.10;99.90;;;;;;6158459;23;20104;-84
2022/01/19 13:22:52;;;;;;;24.67;14.68;;;6.10;99.90;;;;;;6158484;23;20001;-84
2022/01/19 13:25:25;;;;;;;29.07;15.20;;;6.10;99.90;;;;;;6159073;23;20336;-84
2022/01/19 13:27:56;;;;;;;25.27;15.17;;;6.10;99.90;;;;;;6158883;23;20248;-84
2022/01/19 13:30:24;;;;;;;23.90;15.13;;;6.10;99.90;;;;;;6158605;23;20013;-85
2022/01/19 13:32:51;;;;;;;26.00;15.40;;;6.10;99.90;;;;;;6158717;23;20009;-85
2022/01/19 13:35:18;;;;;;;25.63;15.43;;;6.10;99.90;;;;;;6159131;23;20015;-84
2022/01/19 13:37:46;;;;;;;24.80;15.03;;;6.10;99.90;;;;;;6158898;23;20040;-84
2022/01/19 13:40:16;;;;;;;26.55;15.95;;;6.00;99.90;;;;;;6160588;23;20009;-84
2022/01/19 13:43:03;;;;;;;25.77;15.00;;;6.10;99.90;;;;;;6191941;23;20036;-85
2022/01/19 13:45:38;;;;;;;25.50;15.17;;;6.10;99.90;;;;;;6195120;23;20008;-84
2022/01/19 13:50:44;;;;;;;28.97;16.63;;;6.00;99.90;;;;;;6193202;23;20001;-85
2022/01/19 13:53:10;;;;;;;29.80;16.27;;;6.00;99.90;;;;;;6161837;23;20009;-84
2022/01/19 13:55:36;;;;;;;26.93;16.37;;;6.00;99.90;;;;;;6159413;23;20012;-85
2022/01/19 13:58:14;;;;;;;28.63;16.33;;;6.10;99.90;;;;;;6184613;23;20001;-85
2022/01/19 14:00:49;;;;;;;29.57;17.40;;;6.00;99.90;;;;;;6187337;23;20005;-84
2022/01/19 14:03:16;;;;;;;30.07;19.07;;;6.00;99.90;;;;;;6139539;23;20006;-84
2022/01/19 14:05:45;;;;;;;25.37;15.93;;;6.00;99.90;;;;;;6165767;23;20454;-85
2022/01/19 14:08:11;;;;;;;26.33;15.43;;;6.00;99.90;;;;;;6164996;23;20005;-84
2022/01/19 14:10:48;;;;;;;26.47;16.23;;;6.10;99.90;;;;;;6166022;23;20002;-84
2022/01/19 14:13:35;;;;;;;27.60;16.10;;;6.10;99.90;;;;;;6161678;23;20012;-84
2022/01/19 14:16:21;;;;;;;28.53;16.07;;;6.00;99.90;;;;;;6183518;23;20073;-85
2022/01/19 14:19:07;;;;;;;28.13;18.10;;;6.00;99.90;;;;;;6139613;23;20340;-85
2022/01/19 14:21:34;;;;;;;26.83;16.33;;;6.10;99.90;;;;;;6140180;23;20005;-84
2022/01/19 14:24:01;;;;;;;31.53;17.57;;;6.00;99.90;;;;;;6169426;23;20013;-86
2022/01/19 14:26:28;;;;;;;32.20;18.13;;;6.00;99.90;;;;;;6165892;23;20017;-84
2022/01/19 14:29:13;;;;;;;32.50;18.50;;;6.00;99.90;;;;;;6191752;23;20490;-84
2022/01/19 14:31:58;;;;;;;36.50;18.70;;;6.10;99.90;;;;;;6164251;23;20095;-83
2022/01/19 14:34:42;;;;;;;32.97;19.47;;;6.00;99.90;;;;;;6190548;23;20059;-85
2022/01/19 14:37:12;;;;;;;35.03;18.00;;;6.00;99.90;;;;;;6190689;23;20072;-84
2022/01/19 14:39:53;;;;;;;;;;;6.00;99.90;;;;;;6190372;23;20452;-84